JDI39 CYMM-CYZF
Flight info
| Callsign | JDI39 |
|---|---|
| Flight time | N/A |
| Altitude | 32000 |
| Route | YSM |
| Aircraft | RJ70/M-SDFGIRWY/LB1 |
Departure
| Time | 2026-04-29 01:29 |
|---|---|
| Airport | Fort McMurray International Airport (CYMM) |
Arrival
| Time | N/A |
|---|---|
| Airport | Yellowknife International Airport (CYZF) |
| Time | Latitude | Longitude | Altitude | Speed | Heading |
|---|---|---|---|---|---|
| 2026-04-29 01:00 | 56.65576 | -111.22414 | 1218 ft | 0 kts | 51° |
| 2026-04-29 01:20 | 56.65578 | -111.22404 | 1218 ft | 2 kts | 85° |
| 2026-04-29 01:20 | 56.65571 | -111.22366 | 1218 ft | 5 kts | 117° |
| 2026-04-29 01:20 | 56.65547 | -111.22304 | 1218 ft | 7 kts | 130° |
| 2026-04-29 01:20 | 56.65508 | -111.22218 | 1218 ft | 10 kts | 125° |
| 2026-04-29 01:21 | 56.65493 | -111.22084 | 1218 ft | 12 kts | 83° |
| 2026-04-29 01:21 | 56.65498 | -111.21917 | 1218 ft | 14 kts | 90° |
| 2026-04-29 01:21 | 56.65494 | -111.21722 | 1219 ft | 16 kts | 92° |
| 2026-04-29 01:21 | 56.65495 | -111.21524 | 1219 ft | 15 kts | 91° |
| 2026-04-29 01:22 | 56.65492 | -111.21339 | 1219 ft | 14 kts | 89° |
| 2026-04-29 01:22 | 56.65493 | -111.21166 | 1219 ft | 13 kts | 91° |
| 2026-04-29 01:22 | 56.65492 | -111.21005 | 1219 ft | 12 kts | 91° |
| 2026-04-29 01:22 | 56.65492 | -111.20903 | 1219 ft | 12 kts | 90° |
| 2026-04-29 01:23 | 56.65489 | -111.20761 | 1219 ft | 11 kts | 101° |
| 2026-04-29 01:23 | 56.65455 | -111.20664 | 1219 ft | 0 kts | 135° |
| 2026-04-29 01:26 | 56.65453 | -111.20659 | 1219 ft | 3 kts | 135° |
| 2026-04-29 01:27 | 56.65432 | -111.20626 | 1219 ft | 4 kts | 139° |
| 2026-04-29 01:27 | 56.65427 | -111.20617 | 1219 ft | 0 kts | 139° |
| 2026-04-29 01:27 | 56.65421 | -111.20608 | 1219 ft | 4 kts | 139° |
| 2026-04-29 01:27 | 56.65380 | -111.20546 | 1219 ft | 11 kts | 144° |
| 2026-04-29 01:28 | 56.65319 | -111.20542 | 1219 ft | 9 kts | 246° |
| 2026-04-29 01:28 | 56.65317 | -111.20576 | 1219 ft | 0 kts | 264° |
| 2026-04-29 01:29 | 56.65317 | -111.20920 | 1219 ft | 65 kts | 270° |
| 2026-04-29 01:29 | 56.65318 | -111.22168 | 1218 ft | 130 kts | 270° |
| 2026-04-29 01:29 | 56.65317 | -111.24004 | 1437 ft | 160 kts | 270° |
| 2026-04-29 01:29 | 56.65347 | -111.26139 | 1908 ft | 175 kts | 272° |
| 2026-04-29 01:30 | 56.65362 | -111.28439 | 2430 ft | 194 kts | 270° |
| 2026-04-29 01:30 | 56.65315 | -111.31030 | 2950 ft | 217 kts | 268° |
| 2026-04-29 01:30 | 56.65235 | -111.33886 | 3762 ft | 234 kts | 268° |
| 2026-04-29 01:30 | 56.65143 | -111.36844 | 4815 ft | 237 kts | 268° |
| 2026-04-29 01:31 | 56.65043 | -111.39896 | 5298 ft | 239 kts | 268° |
| 2026-04-29 01:31 | 56.64956 | -111.42904 | 6455 ft | 236 kts | 268° |
| 2026-04-29 01:31 | 56.64862 | -111.45910 | 7426 ft | 242 kts | 268° |
| 2026-04-29 01:31 | 56.64746 | -111.49000 | 8330 ft | 248 kts | 269° |
| 2026-04-29 01:32 | 56.64607 | -111.52174 | 9093 ft | 255 kts | 268° |
| 2026-04-29 01:32 | 56.64447 | -111.55417 | 9810 ft | 260 kts | 269° |
| 2026-04-29 01:32 | 56.64268 | -111.58701 | 10559 ft | 263 kts | 268° |
| 2026-04-29 01:32 | 56.64082 | -111.62008 | 11321 ft | 264 kts | 268° |
| 2026-04-29 01:33 | 56.63887 | -111.65341 | 12079 ft | 266 kts | 269° |
| 2026-04-29 01:33 | 56.64022 | -111.68628 | 12798 ft | 260 kts | 296° |
| 2026-04-29 01:33 | 56.65121 | -111.71159 | 13359 ft | 263 kts | 328° |
| 2026-04-29 01:33 | 56.66878 | -111.72286 | 13697 ft | 278 kts | 350° |
| 2026-04-29 01:34 | 56.68849 | -111.72717 | 13986 ft | 292 kts | 354° |
| 2026-04-29 01:34 | 56.70923 | -111.72973 | 14212 ft | 305 kts | 356° |
| 2026-04-29 01:34 | 56.73057 | -111.73087 | 14618 ft | 309 kts | 357° |
| 2026-04-29 01:34 | 56.75216 | -111.73156 | 15063 ft | 311 kts | 358° |
| 2026-04-29 01:35 | 56.77385 | -111.73228 | 15500 ft | 313 kts | 358° |
| 2026-04-29 01:35 | 56.79573 | -111.73304 | 15917 ft | 315 kts | 357° |
| 2026-04-29 01:35 | 56.81738 | -111.73417 | 16315 ft | 316 kts | 357° |
| 2026-04-29 01:35 | 56.83946 | -111.73539 | 16706 ft | 318 kts | 356° |
| 2026-04-29 01:36 | 56.86168 | -111.73668 | 17094 ft | 320 kts | 357° |
| 2026-04-29 01:36 | 56.88428 | -111.73801 | 17477 ft | 322 kts | 356° |
| 2026-04-29 01:36 | 56.90643 | -111.73953 | 17852 ft | 324 kts | 356° |
| 2026-04-29 01:36 | 56.92900 | -111.74121 | 18221 ft | 326 kts | 356° |
| 2026-04-29 01:37 | 56.95172 | -111.74268 | 18572 ft | 327 kts | 356° |
| 2026-04-29 01:37 | 56.97456 | -111.74415 | 18900 ft | 328 kts | 356° |
| 2026-04-29 01:37 | 56.99748 | -111.74560 | 19241 ft | 330 kts | 356° |
| 2026-04-29 01:37 | 57.02043 | -111.74711 | 19576 ft | 331 kts | 356° |
| 2026-04-29 01:38 | 57.04351 | -111.74864 | 19912 ft | 332 kts | 356° |
| 2026-04-29 01:38 | 57.06661 | -111.75025 | 20238 ft | 333 kts | 356° |
| 2026-04-29 01:38 | 57.08989 | -111.75184 | 20597 ft | 335 kts | 356° |
| 2026-04-29 01:38 | 57.11320 | -111.75348 | 20918 ft | 336 kts | 356° |
| 2026-04-29 01:39 | 57.13660 | -111.75512 | 21244 ft | 337 kts | 356° |
| 2026-04-29 01:39 | 57.16003 | -111.75676 | 21588 ft | 337 kts | 356° |
| 2026-04-29 01:39 | 57.18356 | -111.75840 | 21897 ft | 339 kts | 356° |
| 2026-04-29 01:39 | 57.20717 | -111.76004 | 22195 ft | 340 kts | 356° |
| 2026-04-29 01:40 | 57.23087 | -111.76169 | 22492 ft | 341 kts | 356° |
| 2026-04-29 01:40 | 57.25435 | -111.76334 | 22789 ft | 343 kts | 356° |
| 2026-04-29 01:40 | 57.27822 | -111.76501 | 23082 ft | 344 kts | 356° |
| 2026-04-29 01:40 | 57.30225 | -111.76673 | 23363 ft | 345 kts | 356° |
| 2026-04-29 01:41 | 57.32636 | -111.76845 | 23662 ft | 347 kts | 356° |
| 2026-04-29 01:41 | 57.35056 | -111.77015 | 23911 ft | 348 kts | 356° |
| 2026-04-29 01:41 | 57.37482 | -111.77190 | 24143 ft | 349 kts | 356° |
| 2026-04-29 01:41 | 57.39918 | -111.77364 | 24380 ft | 351 kts | 356° |
| 2026-04-29 01:42 | 57.42360 | -111.77541 | 24610 ft | 351 kts | 356° |
| 2026-04-29 01:42 | 57.44792 | -111.77711 | 24970 ft | 349 kts | 356° |
| 2026-04-29 01:42 | 57.47181 | -111.77868 | 25261 ft | 348 kts | 356° |
| 2026-04-29 01:42 | 57.49598 | -111.78025 | 25552 ft | 347 kts | 356° |
| 2026-04-29 01:43 | 57.52015 | -111.78188 | 25837 ft | 346 kts | 356° |
| 2026-04-29 01:43 | 57.54421 | -111.78363 | 26115 ft | 345 kts | 356° |
| 2026-04-29 01:43 | 57.56820 | -111.78529 | 26389 ft | 345 kts | 356° |
| 2026-04-29 01:43 | 57.59219 | -111.78693 | 26662 ft | 344 kts | 356° |
| 2026-04-29 01:44 | 57.61606 | -111.78857 | 26929 ft | 343 kts | 356° |
| 2026-04-29 01:44 | 57.63991 | -111.79023 | 27197 ft | 342 kts | 356° |
| 2026-04-29 01:44 | 57.66341 | -111.79188 | 27446 ft | 342 kts | 356° |
| 2026-04-29 01:44 | 57.68715 | -111.79359 | 27700 ft | 341 kts | 356° |
| 2026-04-29 01:45 | 57.71088 | -111.79528 | 27956 ft | 341 kts | 356° |
| 2026-04-29 01:45 | 57.73449 | -111.79699 | 28265 ft | 338 kts | 356° |
| 2026-04-29 01:45 | 57.75795 | -111.79867 | 28523 ft | 337 kts | 356° |
| 2026-04-29 01:45 | 57.78138 | -111.80034 | 28776 ft | 336 kts | 356° |
| 2026-04-29 01:46 | 57.80472 | -111.80202 | 29027 ft | 336 kts | 356° |
| 2026-04-29 01:46 | 57.82805 | -111.80369 | 29265 ft | 335 kts | 356° |
| 2026-04-29 01:46 | 57.85136 | -111.80538 | 29507 ft | 334 kts | 356° |
| 2026-04-29 01:46 | 57.87456 | -111.80706 | 29787 ft | 334 kts | 356° |
| 2026-04-29 01:47 | 57.89775 | -111.80876 | 30002 ft | 333 kts | 356° |
| 2026-04-29 01:47 | 57.92088 | -111.81060 | 30216 ft | 333 kts | 356° |
| 2026-04-29 01:47 | 57.94405 | -111.81223 | 30397 ft | 333 kts | 356° |
| 2026-04-29 01:47 | 57.96718 | -111.81378 | 30548 ft | 333 kts | 356° |
| 2026-04-29 01:48 | 57.99033 | -111.81557 | 30704 ft | 333 kts | 356° |
| 2026-04-29 01:48 | 58.01350 | -111.81720 | 30866 ft | 332 kts | 356° |
| 2026-04-29 01:48 | 58.03658 | -111.81886 | 31039 ft | 332 kts | 356° |
| 2026-04-29 01:48 | 58.05968 | -111.82056 | 31196 ft | 332 kts | 356° |
| 2026-04-29 01:49 | 58.08279 | -111.82223 | 31335 ft | 332 kts | 356° |
| 2026-04-29 01:49 | 58.10589 | -111.82385 | 31477 ft | 333 kts | 356° |
| 2026-04-29 01:49 | 58.12906 | -111.82560 | 31621 ft | 333 kts | 356° |
| 2026-04-29 01:49 | 58.15216 | -111.82722 | 31760 ft | 333 kts | 356° |
| 2026-04-29 01:50 | 58.17532 | -111.82897 | 31898 ft | 333 kts | 356° |
| 2026-04-29 01:50 | 58.19841 | -111.83058 | 32015 ft | 330 kts | 356° |
| 2026-04-29 01:50 | 58.24396 | -111.83396 | 32054 ft | 326 kts | 356° |
| 2026-04-29 01:51 | 58.28932 | -111.83730 | 32060 ft | 326 kts | 356° |
| 2026-04-29 01:51 | 58.33475 | -111.84078 | 32062 ft | 327 kts | 356° |
| 2026-04-29 01:52 | 58.38022 | -111.84443 | 32071 ft | 327 kts | 356° |
| 2026-04-29 01:52 | 58.42573 | -111.84772 | 32067 ft | 328 kts | 356° |
| 2026-04-29 01:53 | 58.47141 | -111.85108 | 32073 ft | 329 kts | 356° |
| 2026-04-29 01:53 | 58.51718 | -111.85451 | 32067 ft | 329 kts | 356° |
| 2026-04-29 01:54 | 58.56296 | -111.85786 | 32068 ft | 329 kts | 356° |
| 2026-04-29 01:54 | 58.60867 | -111.86123 | 32073 ft | 327 kts | 356° |
| 2026-04-29 01:55 | 58.65406 | -111.86458 | 32070 ft | 326 kts | 356° |
| 2026-04-29 01:55 | 58.69924 | -111.86802 | 32089 ft | 328 kts | 356° |
| 2026-04-29 01:56 | 58.74481 | -111.87123 | 32072 ft | 327 kts | 356° |
| 2026-04-29 01:56 | 58.79025 | -111.87438 | 32063 ft | 326 kts | 355° |
| 2026-04-29 01:57 | 58.83563 | -111.87785 | 32063 ft | 327 kts | 355° |
| 2026-04-29 01:57 | 58.88109 | -111.88127 | 32064 ft | 327 kts | 355° |
| 2026-04-29 01:58 | 58.92658 | -111.88501 | 32057 ft | 327 kts | 355° |
| 2026-04-29 01:58 | 58.97198 | -111.88870 | 32057 ft | 327 kts | 355° |
| 2026-04-29 01:59 | 59.01741 | -111.89213 | 32054 ft | 327 kts | 355° |
| 2026-04-29 01:59 | 59.06292 | -111.89563 | 32055 ft | 327 kts | 355° |
| 2026-04-29 02:00 | 59.10840 | -111.89917 | 32061 ft | 327 kts | 355° |
| 2026-04-29 02:00 | 59.15396 | -111.90270 | 32052 ft | 328 kts | 355° |
| 2026-04-29 02:01 | 59.19954 | -111.90615 | 32054 ft | 328 kts | 355° |
| 2026-04-29 02:01 | 59.24506 | -111.90960 | 32048 ft | 327 kts | 355° |
| 2026-04-29 02:02 | 59.29046 | -111.91307 | 32040 ft | 327 kts | 355° |
| 2026-04-29 02:02 | 59.33591 | -111.91656 | 32047 ft | 327 kts | 355° |
| 2026-04-29 02:03 | 59.38137 | -111.92004 | 32042 ft | 327 kts | 355° |
| 2026-04-29 02:03 | 59.42686 | -111.92352 | 32041 ft | 327 kts | 355° |
| 2026-04-29 02:04 | 59.47232 | -111.92704 | 32040 ft | 327 kts | 355° |
| 2026-04-29 02:04 | 59.51786 | -111.93057 | 32056 ft | 328 kts | 354° |
| 2026-04-29 02:05 | 59.56342 | -111.93421 | 32042 ft | 327 kts | 355° |
| 2026-04-29 02:05 | 59.60851 | -111.93779 | 32037 ft | 326 kts | 354° |
| 2026-04-29 02:06 | 59.65393 | -111.94137 | 32030 ft | 327 kts | 355° |
| 2026-04-29 02:06 | 59.69938 | -111.94504 | 32036 ft | 327 kts | 355° |
| 2026-04-29 02:07 | 59.73720 | -111.94806 | 32032 ft | 327 kts | 355° |
| 2026-04-29 02:07 | 59.78263 | -111.95165 | 32024 ft | 327 kts | 355° |
| 2026-04-29 02:08 | 59.82808 | -111.95533 | 32020 ft | 327 kts | 354° |
| 2026-04-29 02:08 | 59.87352 | -111.95900 | 32013 ft | 327 kts | 355° |
| 2026-04-29 02:09 | 59.91893 | -111.96263 | 32006 ft | 327 kts | 355° |
| 2026-04-29 02:09 | 59.96434 | -111.96632 | 32005 ft | 327 kts | 354° |
| 2026-04-29 02:10 | 59.98647 | -111.97394 | 32018 ft | 322 kts | 339° |
| 2026-04-29 02:10 | 60.00727 | -111.99071 | 32017 ft | 323 kts | 336° |
| 2026-04-29 02:10 | 60.04846 | -112.02710 | 32014 ft | 324 kts | 336° |
| 2026-04-29 02:11 | 60.08987 | -112.06264 | 32012 ft | 324 kts | 337° |
| 2026-04-29 02:11 | 60.13137 | -112.09615 | 32008 ft | 323 kts | 338° |
| 2026-04-29 02:12 | 60.17310 | -112.12946 | 32011 ft | 323 kts | 338° |
| 2026-04-29 02:12 | 60.21480 | -112.16305 | 32019 ft | 323 kts | 337° |
| 2026-04-29 02:13 | 60.25649 | -112.19672 | 32023 ft | 323 kts | 337° |
| 2026-04-29 02:13 | 60.29820 | -112.23054 | 32023 ft | 323 kts | 337° |
| 2026-04-29 02:14 | 60.33991 | -112.26445 | 32024 ft | 323 kts | 337° |
| 2026-04-29 02:14 | 60.38155 | -112.29838 | 32025 ft | 322 kts | 337° |
| 2026-04-29 02:15 | 60.42305 | -112.33211 | 32032 ft | 321 kts | 337° |
| 2026-04-29 02:15 | 60.46450 | -112.36578 | 32026 ft | 321 kts | 337° |
| 2026-04-29 02:16 | 60.50607 | -112.39953 | 32032 ft | 322 kts | 337° |
| 2026-04-29 02:16 | 60.54778 | -112.43341 | 32035 ft | 323 kts | 337° |
| 2026-04-29 02:17 | 60.58934 | -112.46777 | 32031 ft | 322 kts | 337° |
| 2026-04-29 02:17 | 60.63088 | -112.50215 | 32032 ft | 322 kts | 336° |
| 2026-04-29 02:18 | 60.67231 | -112.53694 | 32031 ft | 322 kts | 336° |
| 2026-04-29 02:18 | 60.71379 | -112.57153 | 32035 ft | 322 kts | 336° |
| 2026-04-29 02:19 | 60.75534 | -112.60619 | 32031 ft | 322 kts | 336° |
| 2026-04-29 02:19 | 60.79683 | -112.64100 | 32040 ft | 322 kts | 336° |
| 2026-04-29 02:20 | 60.83826 | -112.67582 | 32030 ft | 322 kts | 336° |
| 2026-04-29 02:20 | 60.87948 | -112.71061 | 32029 ft | 322 kts | 336° |
| 2026-04-29 02:21 | 60.92099 | -112.74559 | 32034 ft | 322 kts | 336° |
| 2026-04-29 02:21 | 60.96254 | -112.78037 | 32025 ft | 322 kts | 336° |
| 2026-04-29 02:22 | 61.00427 | -112.81526 | 31609 ft | 333 kts | 336° |
| 2026-04-29 02:22 | 61.02605 | -112.83356 | 31018 ft | 342 kts | 336° |
| 2026-04-29 02:22 | 61.04827 | -112.85232 | 30443 ft | 348 kts | 336° |
| 2026-04-29 02:23 | 61.07077 | -112.87139 | 29828 ft | 350 kts | 336° |
| 2026-04-29 02:23 | 61.09325 | -112.89045 | 29238 ft | 349 kts | 336° |
| 2026-04-29 02:23 | 61.11573 | -112.90953 | 28696 ft | 350 kts | 336° |
| 2026-04-29 02:23 | 61.13827 | -112.92870 | 28153 ft | 351 kts | 336° |
| 2026-04-29 02:24 | 61.16089 | -112.94815 | 27617 ft | 352 kts | 336° |
| 2026-04-29 02:24 | 61.18350 | -112.96757 | 27096 ft | 353 kts | 336° |
| 2026-04-29 02:24 | 61.20622 | -112.98734 | 26578 ft | 355 kts | 336° |
| 2026-04-29 02:25 | 61.25185 | -113.02670 | 25570 ft | 356 kts | 336° |
| 2026-04-29 02:25 | 61.27478 | -113.04632 | 25078 ft | 357 kts | 337° |
| 2026-04-29 02:25 | 61.29770 | -113.06621 | 24603 ft | 358 kts | 336° |
| 2026-04-29 02:25 | 61.32071 | -113.08625 | 24125 ft | 359 kts | 336° |
| 2026-04-29 02:26 | 61.34379 | -113.10615 | 23645 ft | 360 kts | 336° |
| 2026-04-29 02:26 | 61.36666 | -113.12598 | 23095 ft | 360 kts | 336° |
| 2026-04-29 02:26 | 61.38964 | -113.14599 | 22547 ft | 356 kts | 337° |
| 2026-04-29 02:26 | 61.41236 | -113.16591 | 22007 ft | 352 kts | 336° |
| 2026-04-29 02:27 | 61.43487 | -113.18556 | 21477 ft | 350 kts | 337° |
| 2026-04-29 02:27 | 61.45725 | -113.20512 | 20957 ft | 347 kts | 336° |
| 2026-04-29 02:27 | 61.47940 | -113.22475 | 20443 ft | 345 kts | 336° |
| 2026-04-29 02:27 | 61.50141 | -113.24420 | 19936 ft | 342 kts | 336° |
| 2026-04-29 02:28 | 61.52335 | -113.26327 | 19441 ft | 339 kts | 336° |
| 2026-04-29 02:28 | 61.54498 | -113.28243 | 18955 ft | 337 kts | 336° |
| 2026-04-29 02:28 | 61.56650 | -113.30124 | 18468 ft | 334 kts | 337° |
| 2026-04-29 02:28 | 61.58788 | -113.32016 | 17918 ft | 332 kts | 336° |
| 2026-04-29 02:29 | 61.60916 | -113.33911 | 17373 ft | 332 kts | 337° |
| 2026-04-29 02:29 | 61.63043 | -113.35784 | 16839 ft | 331 kts | 336° |
| 2026-04-29 02:29 | 61.65155 | -113.37688 | 16314 ft | 330 kts | 336° |
| 2026-04-29 02:29 | 61.67270 | -113.39553 | 15791 ft | 329 kts | 336° |
| 2026-04-29 02:30 | 61.69374 | -113.41437 | 15285 ft | 328 kts | 336° |
| 2026-04-29 02:30 | 61.71472 | -113.43329 | 14785 ft | 328 kts | 336° |
| 2026-04-29 02:30 | 61.73569 | -113.45222 | 14292 ft | 328 kts | 336° |
| 2026-04-29 02:30 | 61.75672 | -113.47090 | 13786 ft | 328 kts | 337° |
| 2026-04-29 02:31 | 61.77771 | -113.48930 | 13236 ft | 325 kts | 337° |
| 2026-04-29 02:31 | 61.79851 | -113.50783 | 12728 ft | 323 kts | 336° |
| 2026-04-29 02:31 | 61.81912 | -113.52636 | 12316 ft | 321 kts | 336° |
| 2026-04-29 02:31 | 61.83959 | -113.54476 | 12158 ft | 319 kts | 336° |
| 2026-04-29 02:32 | 61.86004 | -113.56320 | 12027 ft | 320 kts | 336° |
| 2026-04-29 02:32 | 61.88054 | -113.58160 | 11898 ft | 319 kts | 336° |
| 2026-04-29 02:32 | 61.90098 | -113.60000 | 11769 ft | 319 kts | 336° |
| 2026-04-29 02:32 | 61.92114 | -113.61807 | 11644 ft | 319 kts | 336° |
| 2026-04-29 02:33 | 61.94158 | -113.63640 | 11512 ft | 318 kts | 336° |
| 2026-04-29 02:33 | 61.96198 | -113.65471 | 11353 ft | 319 kts | 336° |
| 2026-04-29 02:33 | 61.98199 | -113.67308 | 10939 ft | 302 kts | 335° |
| 2026-04-29 02:33 | 62.00031 | -113.68999 | 10522 ft | 273 kts | 335° |
| 2026-04-29 02:34 | 62.01702 | -113.70532 | 10098 ft | 254 kts | 336° |
| 2026-04-29 02:34 | 62.03327 | -113.72009 | 9657 ft | 253 kts | 336° |
| 2026-04-29 02:34 | 62.04941 | -113.73484 | 9214 ft | 252 kts | 335° |
| 2026-04-29 02:34 | 62.06551 | -113.74967 | 8780 ft | 252 kts | 335° |
| 2026-04-29 02:35 | 62.08160 | -113.76448 | 8358 ft | 251 kts | 335° |
| 2026-04-29 02:35 | 62.09766 | -113.77919 | 7942 ft | 251 kts | 335° |
| 2026-04-29 02:35 | 62.11368 | -113.79377 | 7531 ft | 250 kts | 335° |
| 2026-04-29 02:35 | 62.12963 | -113.80820 | 7126 ft | 248 kts | 335° |
| 2026-04-29 02:36 | 62.14551 | -113.82276 | 6727 ft | 248 kts | 334° |
| 2026-04-29 02:36 | 62.16133 | -113.83741 | 6312 ft | 247 kts | 334° |
| 2026-04-29 02:36 | 62.17708 | -113.85210 | 5895 ft | 247 kts | 334° |
| 2026-04-29 02:36 | 62.19287 | -113.86673 | 5471 ft | 247 kts | 335° |
| 2026-04-29 02:37 | 62.20867 | -113.88129 | 5060 ft | 247 kts | 335° |
| 2026-04-29 02:37 | 62.22441 | -113.89587 | 4639 ft | 247 kts | 335° |
| 2026-04-29 02:37 | 62.24013 | -113.91051 | 4211 ft | 246 kts | 335° |
| 2026-04-29 02:37 | 62.25576 | -113.92512 | 3802 ft | 245 kts | 336° |
| 2026-04-29 02:38 | 62.27137 | -113.93958 | 3394 ft | 244 kts | 336° |
| 2026-04-29 02:38 | 62.28684 | -113.95385 | 3147 ft | 241 kts | 336° |
| 2026-04-29 02:38 | 62.30215 | -113.96803 | 3065 ft | 238 kts | 336° |
| 2026-04-29 02:38 | 62.31737 | -113.98220 | 3044 ft | 239 kts | 336° |
| 2026-04-29 02:39 | 62.33258 | -113.99636 | 3044 ft | 238 kts | 336° |
| 2026-04-29 02:39 | 62.34782 | -114.01058 | 3042 ft | 239 kts | 336° |
| 2026-04-29 02:39 | 62.36308 | -114.02480 | 3036 ft | 239 kts | 336° |
| 2026-04-29 02:39 | 62.37832 | -114.03902 | 3035 ft | 239 kts | 336° |
| 2026-04-29 02:40 | 62.39359 | -114.05326 | 3038 ft | 239 kts | 336° |
| 2026-04-29 02:40 | 62.40888 | -114.06750 | 3034 ft | 239 kts | 336° |